sensor_id;sensor_type;location;lat;lon;timestamp;P1;durP1;ratioP1;P2;durP2;ratioP2
25481;SDS011;13395;50.752;4.268;2023-11-22T00:00:53;33.78;;;17.83;;
25481;SDS011;13395;50.752;4.268;2023-11-22T00:03:18;39.70;;;18.35;;
25481;SDS011;13395;50.752;4.268;2023-11-22T00:05:44;32.33;;;17.73;;
25481;SDS011;13395;50.752;4.268;2023-11-22T00:08:09;30.45;;;18.58;;
25481;SDS011;13395;50.752;4.268;2023-11-22T00:10:35;32.03;;;17.75;;
25481;SDS011;13395;50.752;4.268;2023-11-22T00:13:00;32.80;;;17.83;;
25481;SDS011;13395;50.752;4.268;2023-11-22T00:15:26;33.22;;;18.50;;
25481;SDS011;13395;50.752;4.268;2023-11-22T00:17:52;31.33;;;17.65;;
25481;SDS011;13395;50.752;4.268;2023-11-22T00:20:18;32.67;;;17.60;;
25481;SDS011;13395;50.752;4.268;2023-11-22T00:22:46;35.42;;;19.27;;
25481;SDS011;13395;50.752;4.268;2023-11-22T00:25:12;31.50;;;18.15;;
25481;SDS011;13395;50.752;4.268;2023-11-22T00:27:38;29.65;;;17.10;;
25481;SDS011;13395;50.752;4.268;2023-11-22T00:30:04;32.78;;;17.95;;
25481;SDS011;13395;50.752;4.268;2023-11-22T00:32:30;36.58;;;18.83;;
25481;SDS011;13395;50.752;4.268;2023-11-22T00:34:56;37.63;;;20.42;;
25481;SDS011;13395;50.752;4.268;2023-11-22T00:37:22;35.58;;;18.20;;
25481;SDS011;13395;50.752;4.268;2023-11-22T00:39:48;34.95;;;18.30;;
25481;SDS011;13395;50.752;4.268;2023-11-22T00:42:13;32.10;;;16.75;;
25481;SDS011;13395;50.752;4.268;2023-11-22T00:44:39;32.67;;;17.25;;
25481;SDS011;13395;50.752;4.268;2023-11-22T00:47:05;36.22;;;18.35;;
25481;SDS011;13395;50.752;4.268;2023-11-22T00:49:31;37.03;;;18.88;;
25481;SDS011;13395;50.752;4.268;2023-11-22T00:51:57;36.25;;;19.38;;
25481;SDS011;13395;50.752;4.268;2023-11-22T00:54:23;36.55;;;19.17;;
25481;SDS011;13395;50.752;4.268;2023-11-22T00:56:50;34.25;;;19.05;;
25481;SDS011;13395;50.752;4.268;2023-11-22T00:59:15;32.90;;;17.75;;
25481;SDS011;13395;50.752;4.268;2023-11-22T01:01:41;32.88;;;18.35;;
25481;SDS011;13395;50.752;4.268;2023-11-22T01:04:07;38.33;;;19.70;;
25481;SDS011;13395;50.752;4.268;2023-11-22T01:06:33;37.65;;;18.80;;
25481;SDS011;13395;50.752;4.268;2023-11-22T01:08:59;36.22;;;19.10;;
25481;SDS011;13395;50.752;4.268;2023-11-22T01:11:25;40.50;;;19.50;;
25481;SDS011;13395;50.752;4.268;2023-11-22T01:13:51;36.65;;;18.08;;
25481;SDS011;13395;50.752;4.268;2023-11-22T01:16:16;40.35;;;19.45;;
25481;SDS011;13395;50.752;4.268;2023-11-22T01:18:42;35.63;;;18.85;;
25481;SDS011;13395;50.752;4.268;2023-11-22T01:21:08;37.22;;;19.58;;
25481;SDS011;13395;50.752;4.268;2023-11-22T01:23:34;39.22;;;20.60;;
25481;SDS011;13395;50.752;4.268;2023-11-22T01:26:00;36.97;;;19.20;;
25481;SDS011;13395;50.752;4.268;2023-11-22T01:28:29;37.72;;;18.88;;
25481;SDS011;13395;50.752;4.268;2023-11-22T01:30:59;40.13;;;19.77;;
25481;SDS011;13395;50.752;4.268;2023-11-22T01:33:25;40.03;;;20.63;;
25481;SDS011;13395;50.752;4.268;2023-11-22T01:35:52;44.22;;;20.05;;
25481;SDS011;13395;50.752;4.268;2023-11-22T01:38:18;36.10;;;19.55;;
25481;SDS011;13395;50.752;4.268;2023-11-22T01:40:44;39.70;;;19.65;;
25481;SDS011;13395;50.752;4.268;2023-11-22T01:43:14;37.08;;;18.95;;
25481;SDS011;13395;50.752;4.268;2023-11-22T01:45:40;38.10;;;20.05;;
25481;SDS011;13395;50.752;4.268;2023-11-22T01:48:06;37.25;;;18.85;;
25481;SDS011;13395;50.752;4.268;2023-11-22T01:50:32;37.15;;;20.00;;
25481;SDS011;13395;50.752;4.268;2023-11-22T01:52:58;37.78;;;19.13;;
25481;SDS011;13395;50.752;4.268;2023-11-22T01:55:24;40.13;;;20.27;;
25481;SDS011;13395;50.752;4.268;2023-11-22T01:57:51;38.30;;;18.73;;
25481;SDS011;13395;50.752;4.268;2023-11-22T02:00:16;38.03;;;19.45;;
25481;SDS011;13395;50.752;4.268;2023-11-22T02:02:44;42.70;;;20.40;;
25481;SDS011;13395;50.752;4.268;2023-11-22T02:05:10;41.05;;;20.00;;
25481;SDS011;13395;50.752;4.268;2023-11-22T02:07:37;36.40;;;18.33;;
25481;SDS011;13395;50.752;4.268;2023-11-22T02:10:03;34.22;;;18.70;;
25481;SDS011;13395;50.752;4.268;2023-11-22T02:12:32;41.35;;;20.88;;
25481;SDS011;13395;50.752;4.268;2023-11-22T02:14:58;41.80;;;18.65;;
25481;SDS011;13395;50.752;4.268;2023-11-22T02:17:24;41.22;;;20.17;;
25481;SDS011;13395;50.752;4.268;2023-11-22T02:19:49;39.83;;;19.55;;
25481;SDS011;13395;50.752;4.268;2023-11-22T02:22:15;35.30;;;19.25;;
25481;SDS011;13395;50.752;4.268;2023-11-22T02:24:41;46.45;;;20.73;;
25481;SDS011;13395;50.752;4.268;2023-11-22T02:27:06;46.65;;;21.52;;
25481;SDS011;13395;50.752;4.268;2023-11-22T02:29:32;42.78;;;20.55;;
25481;SDS011;13395;50.752;4.268;2023-11-22T02:31:57;41.90;;;19.20;;
25481;SDS011;13395;50.752;4.268;2023-11-22T02:34:23;35.72;;;19.63;;
25481;SDS011;13395;50.752;4.268;2023-11-22T02:36:48;41.88;;;20.63;;
25481;SDS011;13395;50.752;4.268;2023-11-22T02:39:14;37.55;;;19.95;;
25481;SDS011;13395;50.752;4.268;2023-11-22T02:41:41;37.90;;;19.35;;
25481;SDS011;13395;50.752;4.268;2023-11-22T02:44:07;40.63;;;20.30;;
25481;SDS011;13395;50.752;4.268;2023-11-22T02:46:33;43.47;;;21.13;;
25481;SDS011;13395;50.752;4.268;2023-11-22T02:48:58;41.65;;;19.85;;
25481;SDS011;13395;50.752;4.268;2023-11-22T02:51:24;37.75;;;19.70;;
25481;SDS011;13395;50.752;4.268;2023-11-22T02:53:50;37.53;;;19.00;;
25481;SDS011;13395;50.752;4.268;2023-11-22T02:56:17;38.03;;;20.05;;
25481;SDS011;13395;50.752;4.268;2023-11-22T02:58:42;41.70;;;21.02;;
25481;SDS011;13395;50.752;4.268;2023-11-22T03:01:08;40.05;;;19.98;;
25481;SDS011;13395;50.752;4.268;2023-11-22T03:03:34;40.92;;;19.23;;
25481;SDS011;13395;50.752;4.268;2023-11-22T03:06:00;37.58;;;18.83;;
25481;SDS011;13395;50.752;4.268;2023-11-22T03:08:26;34.28;;;17.85;;
25481;SDS011;13395;50.752;4.268;2023-11-22T03:10:52;40.45;;;19.60;;
25481;SDS011;13395;50.752;4.268;2023-11-22T03:13:18;39.30;;;19.20;;
25481;SDS011;13395;50.752;4.268;2023-11-22T03:15:44;40.33;;;18.30;;
25481;SDS011;13395;50.752;4.268;2023-11-22T03:18:09;46.47;;;20.55;;
25481;SDS011;13395;50.752;4.268;2023-11-22T03:20:36;43.15;;;20.20;;
25481;SDS011;13395;50.752;4.268;2023-11-22T03:23:03;40.33;;;19.73;;
25481;SDS011;13395;50.752;4.268;2023-11-22T03:25:29;40.58;;;19.80;;
25481;SDS011;13395;50.752;4.268;2023-11-22T03:27:55;39.03;;;19.58;;
25481;SDS011;13395;50.752;4.268;2023-11-22T03:30:21;40.00;;;19.70;;
25481;SDS011;13395;50.752;4.268;2023-11-22T03:32:47;40.97;;;20.02;;
25481;SDS011;13395;50.752;4.268;2023-11-22T03:35:14;46.05;;;20.80;;
25481;SDS011;13395;50.752;4.268;2023-11-22T03:37:41;38.13;;;19.20;;
25481;SDS011;13395;50.752;4.268;2023-11-22T03:40:07;43.55;;;20.13;;
25481;SDS011;13395;50.752;4.268;2023-11-22T03:42:35;39.80;;;18.85;;
25481;SDS011;13395;50.752;4.268;2023-11-22T03:45:01;39.75;;;19.77;;
25481;SDS011;13395;50.752;4.268;2023-11-22T03:47:27;47.90;;;19.85;;
25481;SDS011;13395;50.752;4.268;2023-11-22T03:49:53;43.08;;;19.30;;
25481;SDS011;13395;50.752;4.268;2023-11-22T03:52:18;41.83;;;18.92;;
25481;SDS011;13395;50.752;4.268;2023-11-22T03:54:44;41.45;;;20.45;;
25481;SDS011;13395;50.752;4.268;2023-11-22T03:57:10;36.95;;;18.77;;
25481;SDS011;13395;50.752;4.268;2023-11-22T03:59:35;39.58;;;20.20;;
25481;SDS011;13395;50.752;4.268;2023-11-22T04:02:01;42.45;;;20.92;;
25481;SDS011;13395;50.752;4.268;2023-11-22T04:04:26;40.00;;;19.55;;
25481;SDS011;13395;50.752;4.268;2023-11-22T04:06:52;44.30;;;19.65;;
25481;SDS011;13395;50.752;4.268;2023-11-22T04:09:18;41.17;;;18.55;;
25481;SDS011;13395;50.752;4.268;2023-11-22T04:14:38;42.78;;;20.10;;
25481;SDS011;13395;50.752;4.268;2023-11-22T04:17:04;36.05;;;19.50;;
25481;SDS011;13395;50.752;4.268;2023-11-22T04:19:29;39.70;;;18.45;;
25481;SDS011;13395;50.752;4.268;2023-11-22T04:21:55;36.75;;;18.55;;
25481;SDS011;13395;50.752;4.268;2023-11-22T04:24:20;41.65;;;19.83;;
25481;SDS011;13395;50.752;4.268;2023-11-22T04:26:46;48.08;;;19.25;;
25481;SDS011;13395;50.752;4.268;2023-11-22T04:29:11;43.00;;;19.63;;
25481;SDS011;13395;50.752;4.268;2023-11-22T04:31:37;39.13;;;18.75;;
25481;SDS011;13395;50.752;4.268;2023-11-22T04:34:03;36.05;;;17.98;;
25481;SDS011;13395;50.752;4.268;2023-11-22T04:36:28;48.45;;;19.73;;
25481;SDS011;13395;50.752;4.268;2023-11-22T04:38:54;40.47;;;18.92;;
25481;SDS011;13395;50.752;4.268;2023-11-22T04:41:20;44.28;;;17.45;;
25481;SDS011;13395;50.752;4.268;2023-11-22T04:43:47;37.55;;;18.38;;
25481;SDS011;13395;50.752;4.268;2023-11-22T04:46:13;45.17;;;20.08;;
25481;SDS011;13395;50.752;4.268;2023-11-22T04:48:38;44.50;;;18.95;;
25481;SDS011;13395;50.752;4.268;2023-11-22T04:51:05;46.78;;;19.67;;
25481;SDS011;13395;50.752;4.268;2023-11-22T04:53:31;50.85;;;20.45;;
25481;SDS011;13395;50.752;4.268;2023-11-22T04:55:57;51.55;;;21.65;;
25481;SDS011;13395;50.752;4.268;2023-11-22T04:58:24;49.38;;;21.20;;
25481;SDS011;13395;50.752;4.268;2023-11-22T05:00:49;49.00;;;21.90;;
25481;SDS011;13395;50.752;4.268;2023-11-22T05:03:15;50.53;;;21.35;;
25481;SDS011;13395;50.752;4.268;2023-11-22T05:05:40;46.88;;;21.38;;
25481;SDS011;13395;50.752;4.268;2023-11-22T05:08:06;49.08;;;21.73;;
25481;SDS011;13395;50.752;4.268;2023-11-22T05:10:32;48.40;;;21.83;;
25481;SDS011;13395;50.752;4.268;2023-11-22T05:12:57;45.40;;;20.77;;
25481;SDS011;13395;50.752;4.268;2023-11-22T05:15:26;54.47;;;22.25;;
25481;SDS011;13395;50.752;4.268;2023-11-22T05:17:52;47.83;;;21.50;;
25481;SDS011;13395;50.752;4.268;2023-11-22T05:20:17;43.17;;;20.27;;
25481;SDS011;13395;50.752;4.268;2023-11-22T05:22:43;47.13;;;22.45;;
25481;SDS011;13395;50.752;4.268;2023-11-22T05:25:08;42.13;;;21.50;;
25481;SDS011;13395;50.752;4.268;2023-11-22T05:27:34;41.08;;;19.90;;
25481;SDS011;13395;50.752;4.268;2023-11-22T05:30:00;48.22;;;20.67;;
25481;SDS011;13395;50.752;4.268;2023-11-22T05:32:26;44.45;;;20.73;;
25481;SDS011;13395;50.752;4.268;2023-11-22T05:34:52;48.95;;;21.15;;
25481;SDS011;13395;50.752;4.268;2023-11-22T05:37:18;45.80;;;21.35;;
25481;SDS011;13395;50.752;4.268;2023-11-22T05:39:43;49.30;;;21.35;;
25481;SDS011;13395;50.752;4.268;2023-11-22T05:42:09;49.40;;;21.08;;
25481;SDS011;13395;50.752;4.268;2023-11-22T05:44:36;48.75;;;22.17;;
25481;SDS011;13395;50.752;4.268;2023-11-22T05:47:01;49.15;;;22.40;;
25481;SDS011;13395;50.752;4.268;2023-11-22T05:49:27;49.50;;;22.40;;
25481;SDS011;13395;50.752;4.268;2023-11-22T05:51:53;52.35;;;23.52;;
25481;SDS011;13395;50.752;4.268;2023-11-22T05:54:19;51.97;;;23.73;;
25481;SDS011;13395;50.752;4.268;2023-11-22T05:56:44;47.08;;;23.23;;
25481;SDS011;13395;50.752;4.268;2023-11-22T05:59:10;55.53;;;23.23;;
25481;SDS011;13395;50.752;4.268;2023-11-22T06:01:35;51.85;;;23.67;;
25481;SDS011;13395;50.752;4.268;2023-11-22T06:04:01;47.78;;;22.13;;
25481;SDS011;13395;50.752;4.268;2023-11-22T06:06:27;56.20;;;23.40;;
25481;SDS011;13395;50.752;4.268;2023-11-22T06:08:53;46.00;;;22.48;;
25481;SDS011;13395;50.752;4.268;2023-11-22T06:11:19;43.65;;;21.30;;
25481;SDS011;13395;50.752;4.268;2023-11-22T06:13:46;47.70;;;22.23;;
25481;SDS011;13395;50.752;4.268;2023-11-22T06:16:12;54.38;;;22.77;;
25481;SDS011;13395;50.752;4.268;2023-11-22T06:18:38;49.92;;;22.02;;
25481;SDS011;13395;50.752;4.268;2023-11-22T06:21:08;45.58;;;23.52;;
25481;SDS011;13395;50.752;4.268;2023-11-22T06:23:34;51.13;;;23.02;;
25481;SDS011;13395;50.752;4.268;2023-11-22T06:26:00;47.25;;;22.10;;
25481;SDS011;13395;50.752;4.268;2023-11-22T06:28:26;46.25;;;21.05;;
25481;SDS011;13395;50.752;4.268;2023-11-22T06:30:51;48.20;;;22.98;;
25481;SDS011;13395;50.752;4.268;2023-11-22T06:33:17;48.00;;;22.13;;
25481;SDS011;13395;50.752;4.268;2023-11-22T06:35:43;50.58;;;22.98;;
25481;SDS011;13395;50.752;4.268;2023-11-22T06:38:09;54.38;;;23.63;;
25481;SDS011;13395;50.752;4.268;2023-11-22T06:40:34;54.20;;;22.95;;
25481;SDS011;13395;50.752;4.268;2023-11-22T06:43:00;49.42;;;22.58;;
25481;SDS011;13395;50.752;4.268;2023-11-22T06:45:29;55.38;;;22.30;;
25481;SDS011;13395;50.752;4.268;2023-11-22T06:47:56;53.40;;;22.73;;
25481;SDS011;13395;50.752;4.268;2023-11-22T06:50:21;43.03;;;22.00;;
25481;SDS011;13395;50.752;4.268;2023-11-22T06:52:47;44.90;;;21.33;;
25481;SDS011;13395;50.752;4.268;2023-11-22T06:55:15;51.83;;;21.08;;
25481;SDS011;13395;50.752;4.268;2023-11-22T06:57:40;49.22;;;22.05;;
25481;SDS011;13395;50.752;4.268;2023-11-22T07:00:06;48.00;;;22.83;;
25481;SDS011;13395;50.752;4.268;2023-11-22T07:02:35;50.90;;;22.08;;
25481;SDS011;13395;50.752;4.268;2023-11-22T07:05:04;45.17;;;21.77;;
25481;SDS011;13395;50.752;4.268;2023-11-22T07:07:34;46.20;;;22.38;;
25481;SDS011;13395;50.752;4.268;2023-11-22T07:10:00;48.10;;;21.98;;
25481;SDS011;13395;50.752;4.268;2023-11-22T07:12:26;43.95;;;21.33;;
25481;SDS011;13395;50.752;4.268;2023-11-22T07:14:52;46.72;;;20.45;;
25481;SDS011;13395;50.752;4.268;2023-11-22T07:17:18;44.92;;;21.15;;
25481;SDS011;13395;50.752;4.268;2023-11-22T07:19:44;46.38;;;21.38;;
25481;SDS011;13395;50.752;4.268;2023-11-22T07:22:13;38.67;;;19.38;;
25481;SDS011;13395;50.752;4.268;2023-11-22T07:24:47;43.20;;;19.45;;
25481;SDS011;13395;50.752;4.268;2023-11-22T07:27:13;44.92;;;19.13;;
25481;SDS011;13395;50.752;4.268;2023-11-22T07:29:39;42.72;;;19.30;;
25481;SDS011;13395;50.752;4.268;2023-11-22T07:32:06;45.40;;;20.42;;
25481;SDS011;13395;50.752;4.268;2023-11-22T07:34:33;45.42;;;21.00;;
25481;SDS011;13395;50.752;4.268;2023-11-22T07:36:59;42.50;;;20.52;;
25481;SDS011;13395;50.752;4.268;2023-11-22T07:39:25;44.40;;;20.02;;
25481;SDS011;13395;50.752;4.268;2023-11-22T07:41:56;41.83;;;20.27;;
25481;SDS011;13395;50.752;4.268;2023-11-22T07:44:22;41.58;;;19.80;;
25481;SDS011;13395;50.752;4.268;2023-11-22T07:46:51;39.42;;;19.63;;
25481;SDS011;13395;50.752;4.268;2023-11-22T07:49:19;45.45;;;20.85;;
25481;SDS011;13395;50.752;4.268;2023-11-22T07:51:44;44.42;;;20.13;;
25481;SDS011;13395;50.752;4.268;2023-11-22T07:54:10;46.60;;;21.10;;
25481;SDS011;13395;50.752;4.268;2023-11-22T07:56:40;49.13;;;20.98;;
25481;SDS011;13395;50.752;4.268;2023-11-22T07:59:08;47.00;;;21.30;;
25481;SDS011;13395;50.752;4.268;2023-11-22T08:01:33;43.08;;;20.60;;
25481;SDS011;13395;50.752;4.268;2023-11-22T08:03:59;53.95;;;21.92;;
25481;SDS011;13395;50.752;4.268;2023-11-22T08:06:25;44.65;;;21.05;;
25481;SDS011;13395;50.752;4.268;2023-11-22T08:08:51;41.97;;;18.08;;
25481;SDS011;13395;50.752;4.268;2023-11-22T08:11:18;42.50;;;19.33;;
25481;SDS011;13395;50.752;4.268;2023-11-22T08:13:44;42.30;;;20.33;;
25481;SDS011;13395;50.752;4.268;2023-11-22T08:16:10;35.33;;;17.52;;
25481;SDS011;13395;50.752;4.268;2023-11-22T08:18:39;40.35;;;19.67;;
25481;SDS011;13395;50.752;4.268;2023-11-22T08:21:07;40.15;;;19.25;;
25481;SDS011;13395;50.752;4.268;2023-11-22T08:23:33;36.97;;;18.52;;
25481;SDS011;13395;50.752;4.268;2023-11-22T08:25:59;34.28;;;18.23;;
25481;SDS011;13395;50.752;4.268;2023-11-22T08:28:25;38.13;;;16.85;;
25481;SDS011;13395;50.752;4.268;2023-11-22T08:30:51;36.08;;;19.02;;
25481;SDS011;13395;50.752;4.268;2023-11-22T08:33:17;41.10;;;18.95;;
25481;SDS011;13395;50.752;4.268;2023-11-22T08:35:42;33.90;;;17.15;;
25481;SDS011;13395;50.752;4.268;2023-11-22T08:38:08;40.13;;;18.55;;
25481;SDS011;13395;50.752;4.268;2023-11-22T08:40:35;32.83;;;16.98;;
25481;SDS011;13395;50.752;4.268;2023-11-22T08:43:02;32.20;;;16.65;;
25481;SDS011;13395;50.752;4.268;2023-11-22T08:45:29;31.90;;;17.02;;
25481;SDS011;13395;50.752;4.268;2023-11-22T08:47:56;33.70;;;16.95;;
25481;SDS011;13395;50.752;4.268;2023-11-22T08:50:22;31.38;;;16.00;;
25481;SDS011;13395;50.752;4.268;2023-11-22T08:52:48;31.05;;;17.35;;
25481;SDS011;13395;50.752;4.268;2023-11-22T08:55:17;33.47;;;17.23;;
25481;SDS011;13395;50.752;4.268;2023-11-22T08:57:47;35.65;;;18.40;;
25481;SDS011;13395;50.752;4.268;2023-11-22T09:00:13;33.80;;;16.58;;
25481;SDS011;13395;50.752;4.268;2023-11-22T09:02:39;33.50;;;17.38;;
25481;SDS011;13395;50.752;4.268;2023-11-22T09:05:05;34.67;;;17.77;;
25481;SDS011;13395;50.752;4.268;2023-11-22T09:07:33;29.50;;;16.77;;
25481;SDS011;13395;50.752;4.268;2023-11-22T09:10:01;36.13;;;17.58;;
25481;SDS011;13395;50.752;4.268;2023-11-22T09:12:34;27.60;;;15.83;;
25481;SDS011;13395;50.752;4.268;2023-11-22T09:15:06;32.15;;;17.40;;
25481;SDS011;13395;50.752;4.268;2023-11-22T09:17:39;29.67;;;16.83;;
25481;SDS011;13395;50.752;4.268;2023-11-22T09:20:14;33.28;;;16.95;;
25481;SDS011;13395;50.752;4.268;2023-11-22T09:22:53;33.28;;;17.42;;
25481;SDS011;13395;50.752;4.268;2023-11-22T09:25:23;34.97;;;17.67;;
25481;SDS011;13395;50.752;4.268;2023-11-22T09:27:51;26.73;;;15.35;;
25481;SDS011;13395;50.752;4.268;2023-11-22T09:30:21;29.95;;;16.20;;
25481;SDS011;13395;50.752;4.268;2023-11-22T09:33:09;30.00;;;15.80;;
25481;SDS011;13395;50.752;4.268;2023-11-22T09:35:40;26.45;;;14.73;;
25481;SDS011;13395;50.752;4.268;2023-11-22T09:38:08;28.30;;;15.38;;
25481;SDS011;13395;50.752;4.268;2023-11-22T09:40:40;26.35;;;15.57;;
25481;SDS011;13395;50.752;4.268;2023-11-22T09:43:12;25.88;;;14.63;;
25481;SDS011;13395;50.752;4.268;2023-11-22T09:45:42;29.25;;;16.23;;
25481;SDS011;13395;50.752;4.268;2023-11-22T09:48:15;24.80;;;15.48;;
25481;SDS011;13395;50.752;4.268;2023-11-22T09:56:02;30.73;;;16.30;;
25481;SDS011;13395;50.752;4.268;2023-11-22T09:58:29;26.08;;;16.92;;
25481;SDS011;13395;50.752;4.268;2023-11-22T10:00:57;35.33;;;18.15;;
25481;SDS011;13395;50.752;4.268;2023-11-22T10:03:28;29.15;;;17.70;;
25481;SDS011;13395;50.752;4.268;2023-11-22T10:05:57;36.65;;;17.70;;
25481;SDS011;13395;50.752;4.268;2023-11-22T10:08:24;34.25;;;18.70;;
25481;SDS011;13395;50.752;4.268;2023-11-22T10:10:52;30.92;;;17.17;;
25481;SDS011;13395;50.752;4.268;2023-11-22T10:13:19;33.20;;;17.05;;
25481;SDS011;13395;50.752;4.268;2023-11-22T10:15:46;28.30;;;16.15;;
25481;SDS011;13395;50.752;4.268;2023-11-22T10:18:13;35.05;;;18.08;;
25481;SDS011;13395;50.752;4.268;2023-11-22T10:20:39;43.10;;;17.70;;
25481;SDS011;13395;50.752;4.268;2023-11-22T10:23:12;42.03;;;17.00;;
25481;SDS011;13395;50.752;4.268;2023-11-22T10:25:48;35.95;;;17.75;;
25481;SDS011;13395;50.752;4.268;2023-11-22T10:28:20;37.95;;;17.30;;
25481;SDS011;13395;50.752;4.268;2023-11-22T10:30:49;32.50;;;17.08;;
25481;SDS011;13395;50.752;4.268;2023-11-22T10:33:16;30.80;;;16.38;;
25481;SDS011;13395;50.752;4.268;2023-11-22T10:35:47;26.45;;;14.80;;
25481;SDS011;13395;50.752;4.268;2023-11-22T10:38:13;32.60;;;15.88;;
25481;SDS011;13395;50.752;4.268;2023-11-22T10:40:40;28.65;;;15.48;;
25481;SDS011;13395;50.752;4.268;2023-11-22T10:43:06;36.65;;;17.17;;
25481;SDS011;13395;50.752;4.268;2023-11-22T10:45:35;31.23;;;15.02;;
25481;SDS011;13395;50.752;4.268;2023-11-22T10:48:02;26.05;;;14.60;;
25481;SDS011;13395;50.752;4.268;2023-11-22T10:50:29;25.00;;;14.13;;
25481;SDS011;13395;50.752;4.268;2023-11-22T10:52:56;28.13;;;14.50;;
25481;SDS011;13395;50.752;4.268;2023-11-22T10:55:26;22.23;;;13.27;;
25481;SDS011;13395;50.752;4.268;2023-11-22T10:57:55;24.52;;;12.25;;
25481;SDS011;13395;50.752;4.268;2023-11-22T11:00:26;19.40;;;13.43;;
25481;SDS011;13395;50.752;4.268;2023-11-22T11:02:59;19.00;;;12.70;;
25481;SDS011;13395;50.752;4.268;2023-11-22T11:08:07;22.02;;;14.52;;
25481;SDS011;13395;50.752;4.268;2023-11-22T11:10:45;20.88;;;13.00;;
25481;SDS011;13395;50.752;4.268;2023-11-22T11:13:12;21.60;;;12.50;;
25481;SDS011;13395;50.752;4.268;2023-11-22T11:15:38;22.48;;;11.73;;
25481;SDS011;13395;50.752;4.268;2023-11-22T11:18:06;17.25;;;12.25;;
25481;SDS011;13395;50.752;4.268;2023-11-22T11:20:33;18.05;;;12.63;;
25481;SDS011;13395;50.752;4.268;2023-11-22T11:23:13;20.40;;;12.68;;
25481;SDS011;13395;50.752;4.268;2023-11-22T11:25:39;17.52;;;12.40;;
25481;SDS011;13395;50.752;4.268;2023-11-22T11:28:09;18.50;;;12.98;;
25481;SDS011;13395;50.752;4.268;2023-11-22T11:30:49;17.92;;;12.50;;
25481;SDS011;13395;50.752;4.268;2023-11-22T11:33:17;19.05;;;13.35;;
25481;SDS011;13395;50.752;4.268;2023-11-22T11:35:57;22.15;;;14.27;;
25481;SDS011;13395;50.752;4.268;2023-11-22T11:38:27;19.98;;;14.18;;
25481;SDS011;13395;50.752;4.268;2023-11-22T11:41:08;28.77;;;14.90;;
25481;SDS011;13395;50.752;4.268;2023-11-22T11:43:48;23.60;;;14.75;;
25481;SDS011;13395;50.752;4.268;2023-11-22T11:46:15;20.85;;;14.13;;
25481;SDS011;13395;50.752;4.268;2023-11-22T11:48:44;24.30;;;14.57;;
25481;SDS011;13395;50.752;4.268;2023-11-22T11:51:13;22.70;;;14.45;;
25481;SDS011;13395;50.752;4.268;2023-11-22T11:53:40;23.23;;;15.00;;
25481;SDS011;13395;50.752;4.268;2023-11-22T11:56:06;18.98;;;13.82;;
25481;SDS011;13395;50.752;4.268;2023-11-22T11:58:34;23.48;;;15.00;;
25481;SDS011;13395;50.752;4.268;2023-11-22T12:00:59;24.13;;;14.52;;
25481;SDS011;13395;50.752;4.268;2023-11-22T12:03:25;19.60;;;14.15;;
25481;SDS011;13395;50.752;4.268;2023-11-22T12:05:51;25.15;;;14.18;;
25481;SDS011;13395;50.752;4.268;2023-11-22T12:08:17;22.38;;;13.95;;
25481;SDS011;13395;50.752;4.268;2023-11-22T12:10:43;22.50;;;14.32;;
25481;SDS011;13395;50.752;4.268;2023-11-22T12:13:15;19.63;;;13.48;;
25481;SDS011;13395;50.752;4.268;2023-11-22T12:15:42;16.83;;;12.32;;
25481;SDS011;13395;50.752;4.268;2023-11-22T12:18:08;18.92;;;13.50;;
25481;SDS011;13395;50.752;4.268;2023-11-22T12:20:33;18.15;;;13.15;;
25481;SDS011;13395;50.752;4.268;2023-11-22T12:23:00;16.55;;;13.52;;
25481;SDS011;13395;50.752;4.268;2023-11-22T12:25:27;19.50;;;15.00;;
25481;SDS011;13395;50.752;4.268;2023-11-22T12:27:56;19.77;;;14.55;;
25481;SDS011;13395;50.752;4.268;2023-11-22T12:30:54;22.65;;;15.55;;
25481;SDS011;13395;50.752;4.268;2023-11-22T12:33:13;22.58;;;16.00;;
25481;SDS011;13395;50.752;4.268;2023-11-22T12:35:43;25.30;;;16.73;;
25481;SDS011;13395;50.752;4.268;2023-11-22T12:38:09;24.77;;;15.57;;
25481;SDS011;13395;50.752;4.268;2023-11-22T12:40:35;29.10;;;16.48;;
25481;SDS011;13395;50.752;4.268;2023-11-22T12:43:01;26.48;;;15.00;;
25481;SDS011;13395;50.752;4.268;2023-11-22T12:45:29;26.15;;;15.73;;
25481;SDS011;13395;50.752;4.268;2023-11-22T12:47:55;22.38;;;14.98;;
25481;SDS011;13395;50.752;4.268;2023-11-22T12:50:31;22.88;;;15.15;;
25481;SDS011;13395;50.752;4.268;2023-11-22T12:53:13;22.05;;;14.05;;
25481;SDS011;13395;50.752;4.268;2023-11-22T12:58:10;24.02;;;13.77;;
25481;SDS011;13395;50.752;4.268;2023-11-22T13:00:35;20.17;;;13.18;;
25481;SDS011;13395;50.752;4.268;2023-11-22T13:03:01;22.02;;;13.63;;
25481;SDS011;13395;50.752;4.268;2023-11-22T13:05:27;17.58;;;11.93;;
25481;SDS011;13395;50.752;4.268;2023-11-22T13:07:53;23.02;;;12.40;;
25481;SDS011;13395;50.752;4.268;2023-11-22T13:10:18;22.27;;;14.05;;
25481;SDS011;13395;50.752;4.268;2023-11-22T13:12:49;22.58;;;13.45;;
25481;SDS011;13395;50.752;4.268;2023-11-22T13:15:15;19.77;;;12.40;;
25481;SDS011;13395;50.752;4.268;2023-11-22T13:17:41;21.38;;;12.95;;
25481;SDS011;13395;50.752;4.268;2023-11-22T13:20:07;20.67;;;12.70;;
25481;SDS011;13395;50.752;4.268;2023-11-22T13:22:42;23.67;;;12.90;;
25481;SDS011;13395;50.752;4.268;2023-11-22T13:25:08;21.05;;;13.00;;
25481;SDS011;13395;50.752;4.268;2023-11-22T13:27:38;20.25;;;11.98;;
25481;SDS011;13395;50.752;4.268;2023-11-22T13:30:04;19.15;;;12.07;;
25481;SDS011;13395;50.752;4.268;2023-11-22T13:32:31;25.92;;;14.45;;
25481;SDS011;13395;50.752;4.268;2023-11-22T13:34:57;23.52;;;12.43;;
25481;SDS011;13395;50.752;4.268;2023-11-22T13:37:26;25.83;;;13.50;;
25481;SDS011;13395;50.752;4.268;2023-11-22T13:39:52;24.73;;;13.63;;
25481;SDS011;13395;50.752;4.268;2023-11-22T13:42:18;24.80;;;13.63;;
25481;SDS011;13395;50.752;4.268;2023-11-22T13:44:43;33.60;;;14.10;;
25481;SDS011;13395;50.752;4.268;2023-11-22T13:47:09;27.30;;;13.05;;
25481;SDS011;13395;50.752;4.268;2023-11-22T13:49:36;27.42;;;13.65;;
25481;SDS011;13395;50.752;4.268;2023-11-22T13:52:02;24.65;;;13.68;;
25481;SDS011;13395;50.752;4.268;2023-11-22T13:54:28;20.90;;;13.82;;
25481;SDS011;13395;50.752;4.268;2023-11-22T13:56:54;22.98;;;13.82;;
25481;SDS011;13395;50.752;4.268;2023-11-22T13:59:19;29.42;;;15.68;;
25481;SDS011;13395;50.752;4.268;2023-11-22T14:01:45;24.15;;;15.00;;
25481;SDS011;13395;50.752;4.268;2023-11-22T14:04:11;24.88;;;16.20;;
25481;SDS011;13395;50.752;4.268;2023-11-22T14:06:36;42.13;;;17.10;;
25481;SDS011;13395;50.752;4.268;2023-11-22T14:09:02;28.65;;;17.42;;
25481;SDS011;13395;50.752;4.268;2023-11-22T14:11:28;27.05;;;16.15;;
25481;SDS011;13395;50.752;4.268;2023-11-22T14:13:54;29.02;;;16.17;;
25481;SDS011;13395;50.752;4.268;2023-11-22T14:16:21;28.85;;;16.17;;
25481;SDS011;13395;50.752;4.268;2023-11-22T14:18:47;30.40;;;15.95;;
25481;SDS011;13395;50.752;4.268;2023-11-22T14:21:12;30.95;;;17.40;;
25481;SDS011;13395;50.752;4.268;2023-11-22T14:23:38;26.42;;;13.82;;
25481;SDS011;13395;50.752;4.268;2023-11-22T14:26:04;23.38;;;14.57;;
25481;SDS011;13395;50.752;4.268;2023-11-22T14:28:30;25.98;;;15.13;;
25481;SDS011;13395;50.752;4.268;2023-11-22T14:30:56;23.40;;;15.23;;
25481;SDS011;13395;50.752;4.268;2023-11-22T14:33:21;25.95;;;15.32;;